• Join FlightAware (Why Join?)
  • Login
  • US Flag 
12:07AM EDT


 

Airport Tracker/Info


-or-


 

Live Flight TrackerFlight Track Log ✈ UAL332 ✈ 18-Jul-2013 ✈ KSMF - KORD

Flight Track Log - Related Links

Times and Time Zones

All times are in EDT time to prevent confusion due to time zone crossing. See the UAL332 flight status page for this flight to view local times or setup timezone preferences in your user account.

Time Position Orientation Groundspeed Altitude Reporting Facility
EDT Latitude Longitude Course Direction KTS MPH feet Rate Location/Type
04:37PM 38.6500 -121.5500 78° East 184 212 1,500  Level Northern Cal TRACON
04:38PM 38.6167 -121.5000 130° Southeast 244 281 3,000 1,980 Climbing Northern Cal TRACON
04:39PM 38.6167 -121.4167 90° East 269 310 5,300 2,340 Climbing Northern Cal TRACON
04:40PM 38.4945 -121.2721 80° East  Level FlightAware Approximate
04:40PM 38.6333 -121.3000 80° East 300 345 8,000  Level Northern Cal TRACON
04:41PM 38.5294 -121.1199 76° East  Level FlightAware Approximate
04:42PM 38.5587 -120.9650 78° East  Level FlightAware Approximate
04:43PM 38.5847 -120.8091 78° East  Level FlightAware Approximate
04:43PM 38.6481 -121.0697 85° East 331 381 11,100  Level Oakland Center
04:44PM 38.6592 -120.9364 84° East 365 420 13,100 2,400 Climbing Oakland Center
04:45PM 38.6711 -120.8006 84° East 379 436 16,100 2,760 Climbing Oakland Center
04:46PM 38.6825 -120.6617 84° East 389 448 18,900 1,620 Climbing Oakland Center
04:47PM 38.6944 -120.5061 84° East 442 509 19,500 1,500 Climbing Oakland Center
04:48PM 38.7064 -120.3544 84° East 430 495 22,000 1,680 Climbing Oakland Center
04:49PM 38.7353 -120.2094 76° East 428 493 23,000 1,020 Climbing Oakland Center
04:50PM 38.8631 -120.1097 31° Northeast 446 513 24,200 1,020 Climbing Oakland Center
04:51PM 38.9786 -120.0319 28° Northeast 457 526 25,200 900 Climbing Oakland Center
04:52PM 39.0947 -119.9539 28° Northeast 465 535 26,100 840 Climbing Oakland Center
04:53PM 39.2125 -119.8731 28° Northeast 475 547 27,000 780 Climbing Oakland Center
04:54PM 39.3183 -119.7647 38° Northeast 484 557 27,800 720 Climbing Oakland Center
04:55PM 39.4094 -119.6339 48° Northeast 486 559 28,500 540 Climbing Oakland Center
04:56PM 39.5028 -119.4972 48° Northeast 498 573 29,000 720 Climbing Oakland Center
04:57PM 39.5967 -119.3594 48° Northeast 506 582 30,100 1,020 Climbing Oakland Center
04:58PM 39.6897 -119.2231 48° Northeast 502 578 31,100 840 Climbing Oakland Center
04:59PM 39.7819 -119.0872 49° Northeast 499 574 31,900 780 Climbing Oakland Center
05:00PM 39.8958 -118.9208 48° Northeast 505 581 32,800 840 Climbing Oakland Center
05:01PM 39.9894 -118.7803 49° Northeast 510 587 33,700 720 Climbing Oakland Center
05:02PM 40.0814 -118.6436 49° Northeast 503 579 34,300 540 Climbing Oakland Center
05:03PM 40.1592 -118.4894 57° Northeast 504 580 34,900 360 Climbing Oakland Center
05:04PM 40.2103 -118.3506 64° Northeast 503 579 35,000  Climbing Salt Lake Center
05:05PM 40.2694 -118.1922 64° Northeast 504 580 35,000  Level Salt Lake Center
05:06PM 40.3381 -118.0072 64° Northeast 504 580 35,000  Level Salt Lake Center
05:08PM 40.4547 -117.6908 64° Northeast 503 579 35,000  Level Salt Lake Center
05:09PM 40.5222 -117.5042 65° Northeast 505 581 35,000  Level Salt Lake Center
05:10PM 40.5819 -117.3447 64° Northeast 505 581 35,000  Level Salt Lake Center
05:11PM 40.6489 -117.1558 65° Northeast 505 581 35,000  Level Salt Lake Center
05:12PM 40.7064 -116.9942 65° Northeast 505 581 35,000  Level Salt Lake Center
05:13PM 40.7739 -116.8061 65° Northeast 503 579 35,000  Level Salt Lake Center
05:14PM 40.8306 -116.6453 65° Northeast 501 577 35,000  Level Salt Lake Center
05:15PM 40.8858 -116.4842 66° East 502 578 35,000  Level Salt Lake Center
05:16PM 40.9508 -116.2969 65° Northeast 501 577 35,000  Level Salt Lake Center
05:17PM 41.0078 -116.1367 65° Northeast 502 578 35,000  Level Salt Lake Center
05:18PM 41.0728 -115.9481 65° Northeast 503 579 35,000  Level Salt Lake Center
05:19PM 41.1272 -115.7897 65° Northeast 497 572 35,000  Level Salt Lake Center
05:20PM 41.1897 -115.6006 66° East 498 573 35,000  Level Salt Lake Center
05:22PM 41.2430 -115.4382 66° East  Level FlightAware Approximate
05:23PM 41.3072 -115.2531 66° East 498 573 35,000  Level Salt Lake Center
05:24PM 41.3669 -115.0769 66° East 501 577 35,000  Level Salt Lake Center
05:25PM 41.4147 -114.9292 67° East 499 574 35,000  Level Salt Lake Center
05:26PM 41.4781 -114.7389 66° East 500 575 35,000  Level Salt Lake Center
05:27PM 41.5364 -114.5697 65° Northeast 502 578 35,000  Level Salt Lake Center
05:28PM 41.6111 -114.4139 57° Northeast 499 574 35,000  Level Salt Lake Center
05:29PM 41.6869 -114.2572 57° Northeast 502 578 35,000  Level Salt Lake Center
05:30PM 41.7764 -114.0681 58° Northeast 501 577 35,000  Level Salt Lake Center
05:31PM 41.8519 -113.9092 57° Northeast 504 580 35,000  Level Salt Lake Center
05:32PM 41.9283 -113.7519 57° Northeast 502 578 35,000  Level Salt Lake Center
05:33PM 42.0036 -113.5936 57° Northeast 503 579 35,000  Level Salt Lake Center
05:34PM 42.0600 -113.4214 66° East 506 582 35,000  Level Salt Lake Center
05:35PM 42.0958 -113.2411 75° East 502 578 35,000  Level Salt Lake Center
05:36PM 42.1325 -113.0600 75° East 503 579 35,000  Level Salt Lake Center
05:37PM 42.1758 -112.8411 75° East 504 580 35,000  Level Salt Lake Center
05:38PM 42.2106 -112.6592 75° East 503 579 35,000  Level Salt Lake Center
05:39PM 42.2464 -112.4758 75° East 504 580 35,000  Level Salt Lake Center
05:40PM 42.2797 -112.2925 76° East 505 581 35,000  Level Salt Lake Center
05:41PM 42.3133 -112.1083 76° East 505 581 35,000  Level Salt Lake Center
05:42PM 42.3467 -111.9242 76° East 504 580 35,000 -60 Level Salt Lake Center
05:43PM 42.3861 -111.7053 76° East 501 577 34,900  Descending Salt Lake Center
05:44PM 42.4192 -111.5219 76° East 502 578 35,000  Climbing Salt Lake Center
05:45PM 42.4511 -111.3375 77° East 503 579 35,000  Level Salt Lake Center
05:46PM 42.4844 -111.1511 76° East 508 585 35,100 300 Climbing Salt Lake Center
05:47PM 42.5164 -110.9656 77° East 508 585 35,700 600 Climbing Salt Lake Center
05:48PM 42.5497 -110.7714 77° East 504 580 36,400 600 Climbing Salt Lake Center
05:49PM 42.5847 -110.5642 77° East 505 581 37,000 240 Climbing Salt Lake Center
05:50PM 42.6139 -110.3872 77° East 503 579 37,000  Level Salt Lake Center
05:51PM 42.6478 -110.1808 77° East 501 577 37,000  Level Salt Lake Center
05:53PM 42.6775 -110.0022 77° East 505 581 37,000  Level Salt Lake Center
05:54PM 42.7058 -109.8236 78° East 505 581 37,000  Level Salt Lake Center
05:55PM 42.7400 -109.6147 77° East 507 583 37,000  Level Salt Lake Center
05:56PM 42.7683 -109.4356 78° East 505 581 37,000  Level Salt Lake Center
05:57PM 42.8003 -109.2289 78° East 502 578 37,000  Level Salt Lake Center
05:58PM 42.8281 -109.0506 78° East 502 578 37,000  Level Salt Lake Center
05:59PM 42.8597 -108.8433 78° East 501 577 37,000  Level Salt Lake Center
06:00PM 42.8869 -108.6672 78° East 498 573 37,000  Level Salt Lake Center
06:01PM 42.9172 -108.4569 79° East 504 580 37,000  Level Salt Lake Center
06:02PM 42.9431 -108.2778 79° East 503 579 37,000  Level Salt Lake Center
06:03PM 42.9692 -108.0972 79° East 501 577 37,000  Level Salt Lake Center
06:04PM 43.0022 -107.8739 78° East 503 579 37,000  Level Salt Lake Center
06:05PM 43.0286 -107.6892 79° East 500 575 37,000  Level Salt Lake Center
06:06PM 43.0553 -107.5031 79° East 502 578 37,000  Level Salt Lake Center
06:07PM 43.0822 -107.3164 79° East 501 577 37,000  Level Salt Lake Center
06:08PM 43.1081 -107.1306 79° East 500 575 37,000  Level Salt Lake Center
06:09PM 43.1397 -106.9186 78° East 498 573 37,000  Level Denver Center
06:10PM 43.1625 -106.7394 80° East 498 573 37,000  Level Denver Center
06:11PM 43.1914 -106.5297 79° East 502 578 37,000  Level Denver Center
06:12PM 43.2158 -106.3508 79° East 500 575 37,000  Level Denver Center
06:13PM 43.2433 -106.1414 80° East 500 575 37,000  Level Denver Center
06:14PM 43.2661 -105.9631 80° East 496 571 37,000  Level Denver Center
06:16PM 43.2975 -105.7225 80° East 499 574 37,000  Level Denver Center
06:17PM 43.3233 -105.5122 80° East 499 574 37,000  Level Denver Center
06:18PM 43.3469 -105.3297 80° East 503 579 37,000  Level Denver Center
06:19PM 43.3772 -105.0864 80° East 505 581 37,000  Level Denver Center
06:20PM 43.3978 -104.9061 81° East 500 575 37,000  Level Denver Center
06:21PM 43.4222 -104.6947 81° East 499 574 37,000  Level Denver Center
06:22PM 43.4217 -104.5111 90° East 499 574 37,000  Level Denver Center
06:23PM 43.4225 -104.3269 90° East 499 574 37,000  Level Denver Center
06:24PM 43.4222 -104.1150 90° East 497 572 37,000  Level Denver Center
06:25PM 43.4222 -103.9344 90° East 493 567 37,000  Level Denver Center
06:26PM 43.4225 -103.7228 90° East 494 568 37,000  Level Denver Center
06:27PM 43.4236 -103.5411 89° East 494 568 37,000  Level Denver Center
06:28PM 43.4272 -103.3303 89° East 496 571 37,000  Level Denver Center
06:29PM 43.4389 -103.1497 85° East 497 572 37,000  Level Denver Center
06:30PM 43.4608 -102.9419 82° East 495 570 37,000  Level Denver Center
06:31PM 43.4947 -102.7664 75° East 496 571 37,000  Level Denver Center
06:32PM 43.5314 -102.5639 76° East 492 566 37,000  Level Denver Center
06:33PM 43.5631 -102.3881 76° East 496 571 37,000  Level Denver Center
06:34PM 43.6011 -102.1850 75° East 491 565 37,000  Level Denver Center
06:35PM 43.6231 -102.0253 79° East 492 566 37,000  Level Denver Center
06:36PM 43.6472 -101.8025 81° East 492 566 37,000  Level Denver Center
06:37PM 43.6517 -101.6133 88° East 493 567 37,000  Level Denver Center
06:39PM 43.6542 -101.4242 89° East 496 571 37,000  Level Denver Center
06:40PM 43.6581 -101.2367 88° East 493 567 37,000  Level Denver Center
06:41PM 43.6606 -101.0481 89° East 493 567 37,000  Level Denver Center
06:42PM 43.6636 -100.8581 89° East 497 572 37,000  Level Denver Center
06:43PM 43.6667 -100.6311 89° East 497 572 37,000  Level Denver Center
06:44PM 43.6692 -100.4431 89° East 492 566 37,000  Level Denver Center
06:45PM 43.6711 -100.2511 89° East 500 575 37,000  Level Denver Center
06:46PM 43.6719 -100.0569 90° East 505 581 37,000  Level Denver Center
06:47PM 43.6736 -99.8650 89° East 506 582 37,000  Level Denver Center
06:48PM 43.6756 -99.6408 89° East 496 571 37,000  Level Denver Center
06:49PM 43.6756 -99.3853 90° East 487 560 37,000  Level Minneapolis Center
06:50PM 43.6758 -99.1992 90° East 487 560 37,000  Level Minneapolis Center
06:51PM 43.6756 -99.0122 90° East 488 562 37,000  Level Minneapolis Center
06:52PM 43.6747 -98.8253 90° East 488 562 37,000  Level Minneapolis Center
06:53PM 43.6744 -98.6133 90° East 487 560 37,000  Level Minneapolis Center
06:54PM 43.6733 -98.4272 90° East 487 560 37,000  Level Minneapolis Center
06:55PM 43.6722 -98.2417 90° East 485 558 37,000  Level Minneapolis Center
06:56PM 43.6700 -98.0561 91° East 485 558 37,000  Level Minneapolis Center
06:58PM 43.6689 -97.8719 90° East 482 555 37,000  Level Minneapolis Center
06:59PM 43.6658 -97.6500 91° East 483 556 37,000  Level Minneapolis Center
07:00PM 43.6619 -97.4656 92° East 483 556 37,000  Level Minneapolis Center
07:01PM 43.6594 -97.2808 91° East 484 557 37,000  Level Minneapolis Center
07:02PM 43.6558 -97.0969 91° East 482 555 37,000  Level Minneapolis Center
07:03PM 43.6519 -96.9125 92° East 484 557 37,000  Level Minneapolis Center
07:04PM 43.6433 -96.6931 93° East 483 556 37,000  Level Minneapolis Center
07:05PM 43.6289 -96.4758 95° East 479 551 37,000  Level Minneapolis Center
07:06PM 43.6150 -96.2953 96° East 479 551 37,000  Level Minneapolis Center
07:07PM 43.6025 -96.1150 95° East 478 550 37,000  Level Minneapolis Center
07:08PM 43.5861 -95.8989 96° East 478 550 37,000  Level Minneapolis Center
07:09PM 43.5722 -95.7194 96° East 476 548 37,000  Level Minneapolis Center
07:10PM 43.5583 -95.5381 96° East 479 551 37,000  Level Minneapolis Center
07:11PM 43.5444 -95.3572 96° East 479 551 37,000  Level Minneapolis Center
07:12PM 43.5297 -95.1761 96° East 479 551 37,000  Level Minneapolis Center
07:13PM 43.5147 -94.9947 96° East 479 551 37,000  Level Minneapolis Center
07:14PM 43.4958 -94.7789 97° East 476 548 37,000  Level Minneapolis Center
07:15PM 43.4800 -94.5992 97° East 476 548 37,000  Level Minneapolis Center
07:16PM 43.4642 -94.4194 97° East 475 547 37,000  Level Minneapolis Center
07:17PM 43.4486 -94.2539 97° East 473 544 37,000  Level Minneapolis Center
07:18PM 43.4300 -94.0397 97° East 472 543 37,000  Level Minneapolis Center
07:20PM 43.4106 -93.8286 97° East 470 541 37,000 -60 Level Minneapolis Center
07:21PM 43.3931 -93.6542 98° East 466 536 36,900 -480 Descending Minneapolis Center
07:22PM 43.3772 -93.4792 97° East 466 536 36,100 -900 Descending Minneapolis Center
07:23PM 43.3592 -93.3042 98° East 467 537 35,100 -1,080 Descending Minneapolis Center
07:24PM 43.3389 -93.0917 97° East 470 541 33,900 -1,020 Descending Minneapolis Center
07:25PM 43.3206 -92.9147 98° East 471 542 33,000 -600 Descending Minneapolis Center
07:26PM 43.3028 -92.7394 98° East 470 541 32,700 -660 Descending Minneapolis Center
07:27PM 43.2839 -92.5672 99° East 463 533 31,700 -840 Descending Minneapolis Center
07:28PM 43.2664 -92.3928 98° East 464 534 31,000 -360 Descending Minneapolis Center
07:29PM 43.2447 -92.1853 98° East 462 532 31,000 -240 Level Minneapolis Center
07:30PM 43.2217 -91.9783 99° East 460 529 30,500 -660 Descending Minneapolis Center
07:31PM 43.2033 -91.8028 98° East 464 534 29,500 -1,020 Descending Minneapolis Center
07:32PM 43.1761 -91.6317 102° East 462 532 28,500 -1,020 Descending Minneapolis Center
07:33PM 43.1233 -91.4739 115° Southeast 456 525 27,500 -780 Descending Minneapolis Center
07:34PM 43.0697 -91.3211 116° Southeast 450 518 27,000 -300 Descending Chicago Center
07:35PM 43.0156 -91.1669 116° Southeast 450 518 27,000  Level Chicago Center
07:36PM 42.9622 -91.0139 115° Southeast 448 516 27,000  Level Chicago Center
07:37PM 42.8981 -90.8294 115° Southeast 451 519 27,000  Level Chicago Center
07:38PM 42.8444 -90.6775 116° Southeast 450 518 27,000 -300 Level Chicago Center
07:39PM 42.7914 -90.5267 116° Southeast 443 510 26,500 -780 Descending Chicago Center
07:40PM 42.7375 -90.3825 117° Southeast 435 501 25,500 -1,020 Descending Chicago Center
07:42PM 42.6850 -90.2336 116° Southeast 437 503 24,500 -720 Descending Chicago Center
07:43PM 42.6172 -90.0517 117° Southeast 449 517 24,000 -240 Descending Chicago Center
07:44PM 42.5608 -89.8928 116° Southeast 455 524 24,000 -120 Level Chicago Center
07:45PM 42.5172 -89.7361 111° Southeast 453 521 23,800 -1,200 Descending Chicago Center
07:46PM 42.5153 -89.5647 91° East 454 522 21,600 -2,040 Descending Chicago Center
07:47PM 42.5122 -89.3975 91° East 447 514 19,700 -1,980 Descending Chicago Center
07:48PM 42.5094 -89.2081 91° East 435 501 17,600 -1,860 Descending Chicago Center
07:49PM 42.5075 -89.0528 91° East 419 482 15,900 -1,680 Descending Chicago Center
07:50PM 42.4981 -88.9008 95° East 414 476 14,200 -1,680 Descending Chicago Center
07:51PM 42.4567 -88.7656 112° Southeast 391 450 12,500 -1,860 Descending Chicago Center
07:52PM 42.4086 -88.6094 113° Southeast 386 444 10,400 -1,200 Descending Chicago Center
07:53PM 42.3692 -88.4800 112° Southeast 376 433 10,000 -240 Descending Chicago Center
07:54PM 42.3239 -88.3597 117° Southeast 366 421 10,000  Level Chicago Center
07:55PM 42.2589 -88.2531 129° Southeast 367 422 10,000  Level Chicago Center
07:56PM 42.2000 -88.1522 128° Southeast 351 404 10,000 -720 Level Chicago Center
07:57PM 42.1386 -88.0806 139° Southeast 303 349 8,600 -1,440 Descending Chicago Center
07:58PM 42.0903 -87.9719 121° Southeast 306 352 7,100 -960 Descending Chicago Center
07:59PM 42.1000 -87.9000 80° East 322 371 7,000 -660 Descending Chicago TRACON
08:00PM 42.1000 -87.8000 90° East 269 310 6,100 -1,500 Descending Chicago TRACON
08:01PM 42.0667 -87.7167 118° Southeast 246 283 4,100 -1,560 Descending Chicago TRACON
08:02PM 42.0167 -87.7500 206° Southwest 203 234 3,000 -1,020 Descending Chicago TRACON
08:02PM 42.0058 -87.7656 227° Southwest 206 237 2,600 -840 Descending Chicago Center